createdAt,value
2023-04-14T00:00:27.777Z,90.83
2023-04-14T00:05:31.888Z,93.68
2023-04-14T00:10:35.734Z,100.00
2023-04-14T00:15:41.567Z,100.00
2023-04-14T00:20:45.674Z,100.00
2023-04-14T00:25:50.999Z,100.00
2023-04-14T00:30:56.343Z,100.00
2023-04-14T00:36:01.546Z,100.00
2023-04-14T00:41:06.992Z,99.43
2023-04-14T00:46:12.529Z,97.87
2023-04-14T00:51:16.747Z,100.00
2023-04-14T00:56:21.335Z,100.00
2023-04-14T01:01:27.189Z,97.01
2023-04-14T01:06:32.107Z,95.08
2023-04-14T01:11:46.357Z,94.86
2023-04-14T01:16:56.891Z,85.46
2023-04-14T01:22:06.978Z,88.18
2023-04-14T01:27:27.004Z,90.08
2023-04-14T01:32:36.627Z,95.40
2023-04-14T01:37:49.117Z,95.36
2023-04-14T01:43:00.808Z,96.31
2023-04-14T01:48:07.743Z,97.78
2023-04-14T01:53:14.582Z,98.67
2023-04-14T01:58:20.206Z,100.00
2023-04-14T02:03:27.810Z,97.83
2023-04-14T02:08:32.929Z,95.21
2023-04-14T02:13:42.414Z,94.57
2023-04-14T02:18:49.931Z,93.71
2023-04-14T02:23:54.528Z,90.25
2023-04-14T02:29:06.299Z,87.87
2023-04-14T02:34:15.133Z,84.57
2023-04-14T02:39:23.178Z,82.12
2023-04-14T02:44:31.244Z,82.80
2023-04-14T02:49:40.595Z,81.44
2023-04-14T02:54:47.472Z,82.59
2023-04-14T02:59:53.437Z,86.78
2023-04-14T03:05:00.173Z,89.63
2023-04-14T03:10:13.528Z,94.56
2023-04-14T03:15:19.538Z,86.25
2023-04-14T03:20:26.651Z,94.04
2023-04-14T03:25:36.744Z,100.00
2023-04-14T03:30:47.657Z,100.00
2023-04-14T03:35:54.924Z,100.00
2023-04-14T03:41:03.456Z,100.00
2023-04-14T03:46:07.682Z,100.00
2023-04-14T03:51:17.022Z,100.00
2023-04-14T03:56:21.180Z,100.00
2023-04-14T04:01:26.956Z,100.00
2023-04-14T04:06:36.227Z,100.00
2023-04-14T04:11:43.246Z,100.00
2023-04-14T04:16:54.375Z,100.00
2023-04-14T04:22:02.996Z,100.00
2023-04-14T04:27:11.996Z,100.00
2023-04-14T04:36:27.829Z,100.00
2023-04-14T04:41:33.517Z,100.00
2023-04-14T04:46:47.507Z,100.00
2023-04-14T04:51:54.801Z,100.00
2023-04-14T04:56:58.957Z,100.00
2023-04-14T05:02:02.922Z,100.00
2023-04-14T05:07:08.736Z,99.05
2023-04-14T05:12:12.619Z,100.00
2023-04-14T05:17:16.505Z,90.92
2023-04-14T05:22:21.823Z,85.24
2023-04-14T05:27:25.939Z,77.23
2023-04-14T05:37:59.164Z,78.53
2023-04-14T05:43:03.098Z,74.66
2023-04-14T05:48:07.140Z,67.80
2023-04-14T05:58:41.178Z,66.51
2023-04-14T06:03:45.173Z,66.07
2023-04-14T06:08:52.407Z,63.32
2023-04-14T06:13:56.334Z,62.91
2023-04-14T06:19:00.456Z,70.93
2023-04-14T06:24:06.254Z,70.12
2023-04-14T06:29:10.471Z,68.39
2023-04-14T06:34:14.422Z,69.99
2023-04-14T06:39:20.100Z,68.25
2023-04-14T06:44:24.015Z,71.52
2023-04-14T06:49:28.065Z,61.41
2023-04-14T06:54:35.010Z,66.30
2023-04-14T06:59:38.953Z,73.68
2023-04-14T07:04:42.929Z,65.55
2023-04-14T07:09:48.283Z,66.58
2023-04-14T07:14:52.599Z,61.60
2023-04-14T07:19:58.242Z,62.41
2023-04-14T07:25:03.629Z,62.61
2023-04-14T07:30:08.496Z,58.98
2023-04-14T07:35:12.542Z,61.22
2023-04-14T07:40:17.869Z,57.72
2023-04-14T07:45:22.684Z,55.69
2023-04-14T07:50:26.991Z,57.57
2023-04-14T07:55:32.509Z,55.94
2023-04-14T08:00:36.536Z,58.30
2023-04-14T08:05:42.289Z,52.67
2023-04-14T08:10:47.563Z,53.99
2023-04-14T08:15:51.642Z,55.52
2023-04-14T08:20:55.765Z,57.39
2023-04-14T08:26:01.179Z,52.66
2023-04-14T08:31:05.500Z,53.01
2023-04-14T08:36:10.614Z,50.83
2023-04-14T08:41:19.813Z,51.46
2023-04-14T08:46:27.331Z,49.68
2023-04-14T08:51:33.471Z,50.09
2023-04-14T08:56:41.956Z,46.61
2023-04-14T09:01:46.367Z,45.26
2023-04-14T09:06:50.637Z,47.20
2023-04-14T09:17:24.983Z,46.58
2023-04-14T09:22:29.194Z,43.57
2023-04-14T09:27:35.112Z,44.35
2023-04-14T09:32:39.621Z,43.93
2023-04-14T09:37:44.663Z,43.95
2023-04-14T09:42:50.131Z,44.46
2023-04-14T09:48:07.657Z,45.29
2023-04-14T09:53:12.571Z,44.79
2023-04-14T09:58:23.970Z,45.72
2023-04-14T10:03:40.771Z,43.12
2023-04-14T10:08:46.931Z,41.61
2023-04-14T10:13:55.197Z,42.26
2023-04-14T10:18:59.692Z,40.66
2023-04-14T10:24:04.404Z,38.47
2023-04-14T10:29:09.858Z,37.08
2023-04-14T10:34:15.886Z,39.99
2023-04-14T10:39:26.748Z,38.48
2023-04-14T10:44:32.993Z,41.00
2023-04-14T10:49:38.319Z,40.29
2023-04-14T10:54:54.143Z,40.32
2023-04-14T11:00:00.927Z,41.21
2023-04-14T11:05:08.488Z,43.67
2023-04-14T11:10:35.123Z,43.65
2023-04-14T11:15:51.498Z,44.06
2023-04-14T11:20:55.691Z,43.49
2023-04-14T11:26:00.044Z,44.47
2023-04-14T11:31:07.115Z,44.68
2023-04-14T11:36:13.829Z,43.59
2023-04-14T11:52:17.271Z,44.61
2023-04-14T11:57:21.203Z,46.28
2023-04-14T12:02:26.762Z,45.56
2023-04-14T12:07:31.304Z,47.06
2023-04-14T12:12:38.887Z,49.85
2023-04-14T12:17:44.306Z,46.62
2023-04-14T12:22:50.835Z,49.02
2023-04-14T12:27:57.125Z,50.47
2023-04-14T12:33:09.986Z,53.51
2023-04-14T12:38:14.838Z,52.19
2023-04-14T12:43:28.881Z,49.39
2023-04-14T12:48:43.748Z,48.76
2023-04-14T12:53:49.374Z,47.72
2023-04-14T12:58:53.335Z,49.62
2023-04-14T13:03:58.721Z,50.50
2023-04-14T13:09:03.138Z,51.82
2023-04-14T13:14:07.397Z,51.40
2023-04-14T13:19:14.042Z,51.76
2023-04-14T13:24:17.972Z,52.37
2023-04-14T13:29:22.044Z,54.40
2023-04-14T13:34:27.689Z,54.25
2023-04-14T13:39:31.576Z,54.31
2023-04-14T13:44:35.781Z,52.87
2023-04-14T13:49:41.104Z,54.33
2023-04-14T13:54:45.035Z,56.56
2023-04-14T13:59:48.968Z,57.48
2023-04-14T14:04:54.289Z,56.99
2023-04-14T14:10:00.009Z,58.61
2023-04-14T14:15:04.877Z,58.76
2023-04-14T14:20:11.116Z,59.67
2023-04-14T14:25:19.433Z,61.88
2023-04-14T14:30:25.323Z,62.88
2023-04-14T14:35:30.648Z,62.83
2023-04-14T14:40:34.608Z,59.78
2023-04-14T14:45:38.581Z,60.66
2023-04-14T14:50:44.117Z,61.09
2023-04-14T14:55:47.960Z,63.77
2023-04-14T15:00:51.870Z,71.88
2023-04-14T15:05:57.169Z,100.00
2023-04-14T15:11:01.239Z,100.00
2023-04-14T15:16:05.714Z,100.00
2023-04-14T15:21:11.162Z,100.00
2023-04-14T15:26:15.480Z,100.00
2023-04-14T15:31:19.490Z,100.00
2023-04-14T15:36:24.833Z,100.00
2023-04-14T15:41:28.788Z,100.00
2023-04-14T15:46:32.740Z,100.00
2023-04-14T15:51:38.164Z,100.00
2023-04-14T15:56:42.167Z,100.00
2023-04-14T16:01:46.529Z,100.00
2023-04-14T16:06:51.879Z,100.00
2023-04-14T16:11:55.900Z,100.00
2023-04-14T16:16:59.975Z,100.00
2023-04-14T16:22:05.533Z,100.00
2023-04-14T16:27:09.590Z,100.00
2023-04-14T16:32:13.576Z,100.00
2023-04-14T16:37:19.967Z,100.00
2023-04-14T16:42:25.233Z,100.00
2023-04-14T16:47:29.233Z,100.00
2023-04-14T16:52:35.132Z,100.00
2023-04-14T16:57:39.288Z,100.00
2023-04-14T17:02:53.497Z,100.00
2023-04-14T17:07:59.292Z,100.00
2023-04-14T17:13:03.196Z,100.00
2023-04-14T17:18:07.121Z,100.00
2023-04-14T17:23:12.439Z,100.00
2023-04-14T17:33:45.518Z,100.00
2023-04-14T17:38:52.774Z,100.00
2023-04-14T17:43:57.051Z,100.00
2023-04-14T17:49:02.165Z,100.00
2023-04-14T17:54:07.765Z,100.00
2023-04-14T17:59:12.803Z,100.00
2023-04-14T18:04:17.262Z,100.00
2023-04-14T18:09:22.757Z,100.00
2023-04-14T18:14:27.499Z,100.00
2023-04-14T18:19:31.446Z,100.00
2023-04-14T18:29:43.626Z,100.00
2023-04-14T18:34:47.664Z,100.00
2023-04-14T18:39:53.079Z,100.00
2023-04-14T18:44:56.985Z,100.00
2023-04-14T18:50:01.476Z,100.00
2023-04-14T18:55:08.328Z,100.00
2023-04-14T19:00:14.144Z,100.00
2023-04-14T19:05:18.171Z,100.00
2023-04-14T19:10:23.438Z,100.00
2023-04-14T19:15:27.669Z,100.00
2023-04-14T19:20:35.401Z,100.00
2023-04-14T19:25:41.824Z,100.00
2023-04-14T19:30:46.476Z,100.00
2023-04-14T19:35:50.952Z,100.00
2023-04-14T19:40:57.017Z,100.00
2023-04-14T19:46:04.789Z,100.00
2023-04-14T19:51:09.332Z,100.00
2023-04-14T19:56:14.815Z,100.00
2023-04-14T20:01:22.379Z,100.00
2023-04-14T20:06:26.658Z,100.00
2023-04-14T20:11:31.967Z,100.00
2023-04-14T20:16:36.100Z,100.00
2023-04-14T20:21:40.036Z,100.00
2023-04-14T20:26:45.566Z,100.00
2023-04-14T20:31:49.468Z,100.00
2023-04-14T20:36:53.682Z,100.00
2023-04-14T20:41:59.017Z,100.00
2023-04-14T20:47:03.833Z,100.00
2023-04-14T20:52:07.747Z,100.00
2023-04-14T20:57:13.396Z,100.00
2023-04-14T21:02:17.821Z,100.00
2023-04-14T21:07:21.936Z,100.00
2023-04-14T21:12:36.029Z,100.00
2023-04-14T21:17:40.226Z,100.00
2023-04-14T21:22:44.162Z,100.00
2023-04-14T21:27:51.494Z,100.00
2023-04-14T21:32:55.135Z,100.00
2023-04-14T21:37:58.990Z,100.00
2023-04-14T21:43:04.242Z,100.00
2023-04-14T21:48:08.353Z,100.00
2023-04-14T21:53:12.415Z,100.00
2023-04-14T21:58:17.810Z,100.00
2023-04-14T22:03:21.881Z,100.00
2023-04-14T22:08:27.575Z,100.00
2023-04-14T22:13:32.907Z,100.00
2023-04-14T22:18:39.066Z,100.00
2023-04-14T22:23:44.603Z,100.00
2023-04-14T22:28:49.822Z,100.00
2023-04-14T22:33:53.760Z,100.00
2023-04-14T22:38:57.624Z,100.00
2023-04-14T22:44:05.944Z,100.00
2023-04-14T22:49:09.928Z,100.00
2023-04-14T22:54:13.830Z,100.00
2023-04-14T22:59:19.164Z,100.00
2023-04-14T23:04:25.126Z,100.00
2023-04-14T23:09:30.625Z,100.00
2023-04-14T23:14:35.921Z,100.00
2023-04-14T23:19:39.765Z,100.00
2023-04-14T23:24:44.056Z,100.00
2023-04-14T23:29:49.324Z,100.00
2023-04-14T23:34:53.230Z,100.00
2023-04-14T23:39:57.488Z,100.00
2023-04-14T23:45:02.748Z,100.00
2023-04-14T23:50:07.571Z,100.00
2023-04-14T23:55:11.838Z,100.00
